Time;durP1;ratioP1;P1;durP2;ratioP2;P2;SDS_P1;SDS_P2;PMS_P1;PMS_P2;Temp;Humidity;BMP_temperature;BMP_pressure;BME280_temperature;BME280_humidity;BME280_pressure;Samples;Min_cycle;Max_cycle;Signal;HPM_P1;HPM_P2
2022/05/18 00:00:06;;;;;;;10.40;6.05;;;13.50;99.90;;;;;;5029675;28;20466;-78
2022/05/18 00:02:31;;;;;;;12.07;5.93;;;13.50;99.90;;;;;;5032161;28;20084;-79
2022/05/18 00:04:57;;;;;;;15.10;7.15;;;13.50;99.90;;;;;;5030462;28;20477;-78
2022/05/18 00:07:22;;;;;;;11.60;6.32;;;13.60;99.90;;;;;;5033112;28;20037;-78
2022/05/18 00:09:50;;;;;;;13.43;6.72;;;13.60;99.90;;;;;;5031834;28;20041;-75
2022/05/18 00:12:17;;;;;;;17.00;6.85;;;13.60;99.90;;;;;;5030873;28;20113;-77
2022/05/18 00:14:43;;;;;;;14.40;7.07;;;13.50;99.90;;;;;;5033015;28;20022;-78
2022/05/18 00:17:09;;;;;;;10.75;6.22;;;13.40;99.90;;;;;;5029891;28;20021;-77
2022/05/18 00:19:36;;;;;;;16.13;6.78;;;13.50;99.90;;;;;;5032727;28;20056;-79
2022/05/18 00:22:02;;;;;;;11.70;6.50;;;13.60;99.90;;;;;;5030247;28;20036;-79
2022/05/18 00:24:28;;;;;;;11.80;6.30;;;13.70;99.90;;;;;;5031177;28;20029;-75
2022/05/18 00:26:54;;;;;;;12.75;6.88;;;13.60;99.90;;;;;;5031046;28;20021;-71
2022/05/18 00:29:20;;;;;;;12.57;6.25;;;13.50;99.90;;;;;;5031694;28;20091;-76
2022/05/18 00:31:48;;;;;;;11.05;6.15;;;13.40;99.90;;;;;;5031463;28;20111;-80
2022/05/18 00:34:16;;;;;;;10.40;5.65;;;13.30;99.90;;;;;;5031734;28;20128;-76
2022/05/18 00:36:42;;;;;;;12.07;6.75;;;13.20;99.90;;;;;;5031491;28;20425;-78
2022/05/18 00:39:08;;;;;;;14.82;7.00;;;13.30;99.90;;;;;;5031413;28;20128;-77
2022/05/18 00:41:35;;;;;;;10.60;5.82;;;13.40;99.90;;;;;;5031398;28;20033;-78
2022/05/18 00:44:00;;;;;;;9.23;5.68;;;13.40;99.90;;;;;;5028664;28;20036;-77
2022/05/18 00:46:26;;;;;;;11.82;6.32;;;13.30;99.90;;;;;;5031457;28;20048;-77
2022/05/18 00:48:54;;;;;;;13.65;5.90;;;13.30;99.90;;;;;;5031840;28;20044;-72
2022/05/18 00:51:26;;;;;;;10.38;5.63;;;13.20;99.90;;;;;;5030894;28;20782;-79
2022/05/18 00:54:06;;;;;;;13.68;5.63;;;13.20;99.90;;;;;;5032360;28;20025;-79
2022/05/18 00:57:01;;;;;;;9.52;5.43;;;13.10;99.90;;;;;;5030759;28;20792;-79
2022/05/18 00:59:37;;;;;;;8.95;5.70;;;13.10;99.90;;;;;;5031081;28;20038;-80
2022/05/18 01:02:06;;;;;;;10.57;5.55;;;13.10;99.90;;;;;;5029474;28;20109;-77
2022/05/18 01:04:32;;;;;;;14.75;6.43;;;13.30;99.90;;;;;;5031853;28;20018;-80
2022/05/18 01:07:13;;;;;;;9.52;5.60;;;13.30;99.90;;;;;;5029853;28;20532;-77
2022/05/18 01:09:42;;;;;;;9.43;5.40;;;13.20;99.90;;;;;;5030751;28;20084;-78
2022/05/18 01:12:10;;;;;;;11.02;5.47;;;13.00;99.90;;;;;;5028932;28;20040;-80
2022/05/18 01:14:43;;;;;;;10.55;6.13;;;12.90;99.90;;;;;;5031351;28;20477;-81
2022/05/18 01:17:11;;;;;;;11.98;6.00;;;12.80;99.90;;;;;;5029780;28;20029;-79
2022/05/18 01:20:08;;;;;;;12.55;5.75;;;12.80;99.90;;;;;;5030480;28;20469;-78
2022/05/18 01:23:00;;;;;;;13.07;6.35;;;12.80;99.90;;;;;;5008654;28;20045;-80
2022/05/18 01:25:36;;;;;;;12.38;6.22;;;12.80;99.90;;;;;;5028531;28;20029;-80
2022/05/18 01:28:03;;;;;;;11.02;5.70;;;12.80;99.90;;;;;;5031920;28;20132;-79
2022/05/18 01:30:31;;;;;;;12.50;6.22;;;12.70;99.90;;;;;;5029733;28;20088;-77
2022/05/18 01:32:59;;;;;;;9.80;6.10;;;12.70;99.90;;;;;;5030953;28;20049;-73
2022/05/18 01:35:28;;;;;;;12.13;6.05;;;12.70;99.90;;;;;;5029567;28;20047;-77
2022/05/18 01:37:57;;;;;;;11.88;6.43;;;12.70;99.90;;;;;;5031449;28;20071;-74
2022/05/18 01:40:40;;;;;;;10.80;5.88;;;12.60;99.90;;;;;;5029677;28;20059;-79
2022/05/18 01:43:40;;;;;;;15.93;6.50;;;12.60;99.90;;;;;;5029287;28;20060;-80
2022/05/18 01:46:09;;;;;;;15.70;6.05;;;12.70;99.90;;;;;;5030163;28;20037;-81
2022/05/18 01:48:40;;;;;;;10.77;6.00;;;12.80;99.90;;;;;;5029912;28;20068;-78
2022/05/18 01:51:07;;;;;;;10.57;6.30;;;12.80;99.90;;;;;;5029300;28;20520;-78
2022/05/18 01:53:34;;;;;;;10.85;6.43;;;12.80;99.90;;;;;;5028950;28;20117;-81
2022/05/18 01:56:00;;;;;;;12.18;6.53;;;12.70;99.90;;;;;;5029897;28;20397;-72
2022/05/18 01:58:26;;;;;;;11.25;6.35;;;12.70;99.90;;;;;;5030791;28;20033;-80
2022/05/18 02:00:53;;;;;;;12.02;6.32;;;12.70;99.90;;;;;;5029998;28;20029;-81
2022/05/18 02:03:21;;;;;;;12.52;6.30;;;12.70;99.90;;;;;;5029886;28;20022;-78
2022/05/18 02:05:47;;;;;;;10.93;6.47;;;12.70;99.90;;;;;;5028685;28;20021;-78
2022/05/18 02:08:14;;;;;;;11.57;6.57;;;12.60;99.90;;;;;;5022231;28;20390;-77
2022/05/18 02:10:40;;;;;;;12.50;6.78;;;12.60;99.90;;;;;;5027851;28;20524;-76
2022/05/18 02:13:06;;;;;;;16.25;7.28;;;12.50;99.90;;;;;;5030066;28;20037;-79
2022/05/18 02:15:34;;;;;;;14.43;7.03;;;12.40;99.90;;;;;;5028453;28;20030;-79
2022/05/18 02:18:00;;;;;;;13.73;6.47;;;12.20;99.90;;;;;;5012277;28;20103;-70
2022/05/18 02:20:26;;;;;;;12.73;6.68;;;12.20;99.90;;;;;;5009340;28;20056;-81
2022/05/18 02:22:51;;;;;;;10.93;6.90;;;12.20;99.90;;;;;;5041744;28;20024;-81
2022/05/18 02:25:21;;;;;;;11.43;6.97;;;12.30;99.90;;;;;;5032647;28;20144;-79
2022/05/18 02:27:47;;;;;;;15.68;7.03;;;12.30;99.90;;;;;;5029379;28;20117;-80
2022/05/18 02:30:14;;;;;;;12.70;6.80;;;12.40;99.90;;;;;;5025906;28;20021;-74
2022/05/18 02:32:40;;;;;;;13.30;6.47;;;12.40;99.90;;;;;;5026445;28;20029;-78
2022/05/18 02:35:07;;;;;;;9.93;6.15;;;12.30;99.90;;;;;;5027342;28;20116;-78
2022/05/18 02:37:34;;;;;;;12.73;6.97;;;12.20;99.90;;;;;;5027848;28;20561;-78
2022/05/18 02:39:59;;;;;;;13.07;6.45;;;12.10;99.90;;;;;;5028409;28;20660;-71
2022/05/18 02:42:25;;;;;;;11.88;6.68;;;12.10;99.90;;;;;;5027468;28;20046;-79
2022/05/18 02:44:51;;;;;;;14.45;6.57;;;12.10;99.90;;;;;;5028190;28;20025;-79
2022/05/18 02:47:18;;;;;;;14.15;7.05;;;12.10;99.90;;;;;;5026746;28;20025;-78
2022/05/18 02:49:44;;;;;;;10.70;6.50;;;12.10;99.90;;;;;;5029294;28;20055;-77
2022/05/18 02:52:10;;;;;;;11.80;6.60;;;12.10;99.90;;;;;;5028805;28;20436;-78
2022/05/18 02:57:20;;;;;;;11.48;6.50;;;12.00;99.90;;;;;;5020072;28;20075;-77
2022/05/18 02:59:46;;;;;;;11.88;6.00;;;12.00;99.90;;;;;;5027459;28;20393;-76
2022/05/18 03:02:12;;;;;;;10.35;6.45;;;11.90;99.90;;;;;;5027487;28;20056;-75
2022/05/18 03:04:38;;;;;;;13.07;6.47;;;11.90;99.90;;;;;;5029748;28;20049;-76
2022/05/18 03:07:04;;;;;;;14.63;6.43;;;11.80;99.90;;;;;;5029214;28;20360;-71
2022/05/18 03:09:30;;;;;;;12.52;6.32;;;11.80;99.90;;;;;;5029595;28;20087;-76
2022/05/18 03:11:56;;;;;;;12.52;6.47;;;11.80;99.90;;;;;;5029938;28;20497;-77
2022/05/18 03:14:21;;;;;;;13.70;6.97;;;11.80;99.90;;;;;;5028739;28;20055;-75
2022/05/18 03:16:47;;;;;;;11.40;6.07;;;11.80;99.90;;;;;;5027702;28;20499;-74
2022/05/18 03:19:14;;;;;;;11.95;6.32;;;11.80;99.90;;;;;;5010409;28;20572;-77
2022/05/18 03:24:25;;;;;;;11.40;6.63;;;11.70;99.90;;;;;;5028926;28;20225;-75
2022/05/18 03:26:50;;;;;;;10.05;5.78;;;11.70;99.90;;;;;;5028565;28;20475;-75
2022/05/18 03:29:18;;;;;;;12.13;6.65;;;11.60;99.90;;;;;;5028503;28;20049;-76
2022/05/18 03:31:44;;;;;;;12.48;6.53;;;11.70;99.90;;;;;;5029121;28;20029;-75
2022/05/18 03:34:10;;;;;;;10.18;6.00;;;11.60;99.90;;;;;;5027913;28;20075;-78
2022/05/18 03:36:36;;;;;;;11.55;6.65;;;11.60;99.90;;;;;;5028575;28;20433;-75
2022/05/18 03:39:03;;;;;;;17.30;6.80;;;11.60;99.90;;;;;;5011263;28;20571;-72
2022/05/18 03:41:28;;;;;;;11.13;6.03;;;11.60;99.90;;;;;;5028960;28;20057;-76
2022/05/18 03:43:54;;;;;;;12.30;6.38;;;11.50;99.90;;;;;;5029106;28;20081;-76
2022/05/18 03:46:20;;;;;;;10.15;6.10;;;11.60;99.90;;;;;;5028409;28;20037;-75
2022/05/18 03:48:46;;;;;;;13.73;6.82;;;11.60;99.90;;;;;;5029342;28;20434;-75
2022/05/18 03:51:14;;;;;;;12.50;6.28;;;11.60;99.90;;;;;;5026886;28;20120;-76
2022/05/18 03:53:40;;;;;;;12.57;5.97;;;11.60;99.90;;;;;;5029143;28;20029;-75
2022/05/18 03:56:08;;;;;;;11.20;6.20;;;11.60;99.90;;;;;;5028583;28;20101;-71
2022/05/18 03:58:34;;;;;;;15.65;6.60;;;11.50;99.90;;;;;;5028946;28;20490;-75
2022/05/18 04:01:01;;;;;;;12.98;6.10;;;11.50;99.90;;;;;;5029227;28;20044;-75
2022/05/18 04:03:29;;;;;;;13.85;7.43;;;11.50;99.90;;;;;;5027518;28;20099;-76
2022/05/18 04:05:55;;;;;;;11.18;6.22;;;11.40;99.90;;;;;;5029132;28;20033;-75
2022/05/18 04:08:21;;;;;;;10.82;6.40;;;11.50;99.90;;;;;;5028648;28;20042;-77
2022/05/18 04:10:47;;;;;;;13.93;7.03;;;11.50;99.90;;;;;;4995158;28;20048;-76
2022/05/18 04:13:17;;;;;;;11.98;6.32;;;11.50;99.90;;;;;;5028520;28;20026;-77
2022/05/18 04:15:42;;;;;;;17.98;7.57;;;11.60;99.90;;;;;;5029075;28;20359;-75
2022/05/18 04:18:08;;;;;;;16.27;8.88;;;11.60;99.90;;;;;;5009459;28;20034;-72
2022/05/18 04:20:34;;;;;;;16.58;9.00;;;11.60;99.90;;;;;;5028959;28;20034;-75
2022/05/18 04:23:00;;;;;;;17.88;7.85;;;11.60;99.90;;;;;;5028395;28;20029;-75
2022/05/18 04:25:28;;;;;;;18.48;8.50;;;11.70;99.90;;;;;;5028130;28;20118;-75
2022/05/18 04:27:55;;;;;;;15.73;7.40;;;11.70;99.90;;;;;;5028967;28;20037;-77
2022/05/18 04:30:23;;;;;;;14.85;7.03;;;11.80;99.90;;;;;;5028077;28;20429;-77
2022/05/18 04:32:49;;;;;;;13.30;7.40;;;12.00;99.90;;;;;;5028817;28;20025;-75
2022/05/18 04:35:17;;;;;;;12.40;6.68;;;12.00;99.90;;;;;;5027952;28;20044;-77
2022/05/18 04:37:43;;;;;;;13.10;7.13;;;12.00;99.90;;;;;;5027781;28;20052;-75
2022/05/18 04:40:10;;;;;;;16.92;7.40;;;12.10;99.90;;;;;;5027930;28;20053;-74
2022/05/18 04:42:36;;;;;;;12.02;6.88;;;12.30;99.90;;;;;;5011026;28;20029;-75
2022/05/18 04:45:04;;;;;;;14.82;7.47;;;12.40;99.90;;;;;;5028883;28;20385;-75
2022/05/18 04:47:30;;;;;;;13.75;7.13;;;12.70;99.90;;;;;;5031427;28;20108;-77
2022/05/18 04:49:57;;;;;;;15.68;6.95;;;12.80;99.90;;;;;;5031236;28;20155;-77
2022/05/18 04:52:23;;;;;;;13.57;5.82;;;13.00;99.90;;;;;;5031257;28;20434;-76
2022/05/18 04:54:49;;;;;;;12.32;6.60;;;13.20;99.90;;;;;;5032205;28;20025;-75
2022/05/18 04:57:16;;;;;;;11.13;6.50;;;13.60;99.90;;;;;;5031325;28;20493;-76
2022/05/18 04:59:42;;;;;;;10.45;5.93;;;13.70;99.90;;;;;;5031938;28;20034;-77
2022/05/18 05:02:08;;;;;;;11.38;6.10;;;13.90;99.90;;;;;;5031460;28;20437;-71
2022/05/18 05:04:36;;;;;;;11.65;6.15;;;14.10;99.90;;;;;;5031206;28;20026;-76
2022/05/18 05:07:01;;;;;;;12.38;6.47;;;14.20;99.90;;;;;;5031918;28;20033;-77
2022/05/18 05:09:27;;;;;;;9.73;5.85;;;14.40;99.90;;;;;;5030913;28;20044;-76
2022/05/18 05:11:53;;;;;;;11.50;6.13;;;14.70;99.90;;;;;;5014051;28;20030;-78
2022/05/18 05:14:20;;;;;;;9.30;5.35;;;15.00;99.90;;;;;;5031196;28;20044;-75
2022/05/18 05:16:46;;;;;;;18.75;6.20;;;15.30;99.90;;;;;;5031732;28;20030;-77
2022/05/18 05:19:17;;;;;;;11.77;6.05;;;15.50;99.90;;;;;;5028939;28;20049;-73
2022/05/18 05:21:44;;;;;;;13.13;6.22;;;15.70;99.90;;;;;;5030873;28;20530;-76
2022/05/18 05:24:11;;;;;;;10.88;6.25;;;15.70;99.90;;;;;;5031079;28;20553;-71
2022/05/18 05:26:37;;;;;;;14.30;7.05;;;15.50;99.90;;;;;;5031267;28;20104;-77
2022/05/18 05:29:03;;;;;;;18.85;6.13;;;15.50;99.90;;;;;;5013608;28;20566;-76
2022/05/18 05:31:29;;;;;;;12.48;6.10;;;15.50;99.90;;;;;;5030762;28;20031;-76
2022/05/18 05:33:56;;;;;;;10.80;5.88;;;15.60;99.90;;;;;;5031066;28;20033;-77
2022/05/18 05:36:22;;;;;;;9.63;5.45;;;15.50;99.90;;;;;;5029142;28;20463;-77
2022/05/18 05:38:47;;;;;;;12.30;5.90;;;15.60;99.90;;;;;;5030803;28;20091;-75
2022/05/18 05:41:13;;;;;;;8.95;5.65;;;15.60;99.90;;;;;;5030158;28;20033;-73
2022/05/18 05:43:40;;;;;;;11.05;6.10;;;15.70;99.90;;;;;;5031659;28;20037;-76
2022/05/18 05:46:15;;;;;;;12.43;6.28;;;15.80;99.90;;;;;;5031126;28;20048;-77
2022/05/18 05:48:42;;;;;;;14.45;6.43;;;15.90;99.90;;;;;;5029985;28;20398;-77
2022/05/18 05:51:12;;;;;;;13.27;6.18;;;16.00;99.90;;;;;;5030136;28;20478;-77
2022/05/18 05:53:39;;;;;;;10.63;6.40;;;16.30;99.90;;;;;;5030957;28;20490;-76
2022/05/18 05:56:09;;;;;;;14.35;6.05;;;16.50;99.90;;;;;;5030653;28;20117;-74
2022/05/18 05:58:36;;;;;;;8.45;5.53;;;16.70;99.90;;;;;;5030286;28;20047;-77
2022/05/18 06:01:04;;;;;;;10.57;6.65;;;16.80;99.90;;;;;;5031047;28;20088;-77
2022/05/18 06:03:30;;;;;;;13.52;6.47;;;16.90;99.90;;;;;;5030084;28;20091;-75
2022/05/18 06:05:56;;;;;;;11.00;6.47;;;16.90;99.90;;;;;;5029991;28;20030;-78
2022/05/18 06:08:23;;;;;;;12.27;6.72;;;16.90;99.90;;;;;;5030169;28;20045;-77
2022/05/18 06:10:48;;;;;;;10.68;6.50;;;17.10;99.90;;;;;;5030735;28;20033;-76
2022/05/18 06:13:14;;;;;;;12.07;6.90;;;17.30;99.90;;;;;;5029796;28;20462;-72
2022/05/18 06:15:40;;;;;;;16.52;6.75;;;17.30;99.90;;;;;;5030714;28;20029;-78
2022/05/18 06:18:06;;;;;;;9.32;6.53;;;17.10;99.90;;;;;;5027533;28;20117;-76
2022/05/18 06:20:32;;;;;;;13.10;6.18;;;17.20;99.90;;;;;;5029109;28;20529;-77
2022/05/18 06:23:06;;;;;;;11.20;6.80;;;17.30;99.90;;;;;;5010792;28;20072;-78
2022/05/18 06:25:32;;;;;;;12.50;6.53;;;17.40;99.90;;;;;;5010022;28;20196;-76
2022/05/18 06:27:58;;;;;;;15.50;7.05;;;17.70;99.90;;;;;;5010744;28;20041;-74
2022/05/18 06:30:24;;;;;;;15.70;7.10;;;17.80;99.90;;;;;;5009937;28;20458;-76
2022/05/18 06:32:50;;;;;;;11.27;6.43;;;18.00;99.90;;;;;;5010587;28;20030;-77
2022/05/18 06:35:15;;;;;;;9.98;5.78;;;18.20;99.90;;;;;;5009534;28;20036;-74
2022/05/18 06:37:41;;;;;;;12.80;6.50;;;18.40;99.90;;;;;;5028563;28;20056;-78
2022/05/18 06:40:08;;;;;;;12.23;6.47;;;18.70;99.90;;;;;;5029855;28;20501;-75
2022/05/18 06:42:34;;;;;;;10.48;5.93;;;18.80;99.90;;;;;;5029432;28;20045;-78
2022/05/18 06:45:03;;;;;;;14.25;6.75;;;18.90;99.90;;;;;;5030150;28;20038;-76
2022/05/18 06:47:29;;;;;;;11.23;6.32;;;19.10;99.90;;;;;;5029397;28;20034;-77
2022/05/18 06:49:55;;;;;;;11.50;6.00;;;19.30;99.90;;;;;;5029031;28;20034;-76
2022/05/18 06:52:21;;;;;;;9.00;4.90;;;19.50;99.90;;;;;;5028480;28;20091;-78
2022/05/18 06:54:47;;;;;;;9.38;5.05;;;19.90;99.90;;;;;;5030026;28;20061;-77
2022/05/18 06:57:13;;;;;;;9.93;4.93;;;20.10;99.90;;;;;;5012027;28;20033;-75
2022/05/18 06:59:39;;;;;;;6.72;4.18;;;20.50;99.90;;;;;;5029585;28;20045;-77
2022/05/18 07:02:04;;;;;;;8.82;4.55;;;20.60;99.90;;;;;;5029509;28;20033;-79
2022/05/18 07:04:30;;;;;;;10.35;3.90;;;20.80;99.90;;;;;;5027979;28;20029;-77
2022/05/18 07:06:57;;;;;;;7.55;4.43;;;20.80;99.90;;;;;;5029809;28;20382;-77
2022/05/18 07:09:24;;;;;;;9.65;3.70;;;21.00;99.90;;;;;;5028079;28;20036;-78
2022/05/18 07:11:51;;;;;;;6.82;4.05;;;20.90;99.90;;;;;;5029640;28;20029;-78
2022/05/18 07:14:19;;;;;;;7.25;4.13;;;20.90;99.90;;;;;;5029123;28;20026;-72
2022/05/18 07:16:45;;;;;;;10.57;4.70;;;21.20;99.90;;;;;;5029201;28;20021;-77
2022/05/18 07:19:12;;;;;;;10.18;5.00;;;21.40;99.90;;;;;;5028731;28;20034;-77
2022/05/18 07:21:38;;;;;;;8.32;3.90;;;21.50;99.90;;;;;;5026472;28;20032;-79
2022/05/18 07:24:04;;;;;;;8.52;4.00;;;21.50;99.90;;;;;;5029368;28;20486;-76
2022/05/18 07:26:30;;;;;;;10.60;4.07;;;21.50;99.90;;;;;;5028758;28;20025;-78
2022/05/18 07:28:56;;;;;;;5.95;3.80;;;21.60;99.90;;;;;;5029545;28;20378;-77
2022/05/18 07:31:22;;;;;;;9.07;4.10;;;21.70;99.90;;;;;;5028659;28;20037;-75
2022/05/18 07:33:49;;;;;;;5.78;3.28;;;21.70;99.90;;;;;;5028422;28;20060;-75
2022/05/18 07:36:16;;;;;;;8.02;3.50;;;21.70;99.90;;;;;;5010723;28;20032;-74
2022/05/18 07:38:42;;;;;;;7.72;3.40;;;21.60;99.90;;;;;;5028702;28;20046;-77
2022/05/18 07:41:11;;;;;;;6.03;3.50;;;21.70;99.90;;;;;;5029359;28;20029;-75
2022/05/18 07:43:37;;;;;;;6.97;3.63;;;21.80;99.90;;;;;;5028499;28;20110;-77
2022/05/18 07:46:04;;;;;;;8.45;3.50;;;21.90;99.90;;;;;;5029035;28;20034;-74
2022/05/18 07:48:30;;;;;;;5.30;3.60;;;22.00;99.90;;;;;;5028294;28;20545;-75
2022/05/18 07:50:57;;;;;;;6.82;3.53;;;22.20;99.90;;;;;;5029115;28;20382;-78
2022/05/18 07:53:24;;;;;;;6.32;3.10;;;22.30;99.90;;;;;;5028587;28;20064;-76
2022/05/18 07:55:50;;;;;;;6.53;3.45;;;22.20;99.90;;;;;;5029268;28;20582;-75
2022/05/18 07:58:18;;;;;;;6.55;3.05;;;22.20;99.90;;;;;;5029194;28;20120;-76
2022/05/18 08:00:45;;;;;;;5.30;3.53;;;22.50;99.90;;;;;;5028773;28;20041;-78
2022/05/18 08:03:12;;;;;;;5.75;3.35;;;22.60;99.90;;;;;;5028510;28;20478;-76
2022/05/18 08:05:39;;;;;;;4.20;3.20;;;22.90;99.90;;;;;;5010990;28;20497;-77
2022/05/18 08:08:07;;;;;;;8.82;3.30;;;23.00;99.90;;;;;;5029342;28;20100;-76
2022/05/18 08:16:02;;;;;;;5.82;3.42;;;22.70;99.90;;;;;;5009251;28;20049;-75
2022/05/18 08:18:28;;;;;;;5.82;3.30;;;22.60;99.90;;;;;;5007303;28;20052;-77
2022/05/18 08:20:53;;;;;;;7.45;3.40;;;22.70;99.90;;;;;;5012038;28;20065;-76
2022/05/18 08:23:20;;;;;;;9.73;3.72;;;22.80;99.90;;;;;;5013129;28;20030;-73
2022/05/18 08:25:48;;;;;;;8.40;3.63;;;23.00;99.90;;;;;;5012588;28;20072;-75
2022/05/18 08:28:15;;;;;;;5.75;3.13;;;23.30;99.90;;;;;;5016383;28;20030;-78
2022/05/18 08:30:42;;;;;;;11.93;3.42;;;23.70;99.90;;;;;;5031846;28;20021;-75
2022/05/18 08:33:09;;;;;;;6.70;3.30;;;23.50;99.90;;;;;;5032560;28;20458;-74
2022/05/18 08:35:34;;;;;;;8.43;3.28;;;23.50;99.90;;;;;;5031822;28;20033;-76
2022/05/18 08:38:01;;;;;;;7.78;3.53;;;23.70;99.90;;;;;;5032659;28;20030;-76
2022/05/18 08:40:30;;;;;;;9.23;3.50;;;23.90;99.90;;;;;;5031732;28;20541;-76
2022/05/18 08:42:57;;;;;;;7.35;3.42;;;23.90;99.90;;;;;;5031500;28;20057;-75
2022/05/18 08:45:28;;;;;;;4.85;3.38;;;24.20;99.40;;;;;;5029810;28;20060;-72
2022/05/18 08:48:19;;;;;;;7.07;3.20;;;24.50;99.90;;;;;;5032382;28;20060;-75
2022/05/18 08:50:45;;;;;;;5.45;3.20;;;24.50;98.90;;;;;;5031717;28;20045;-74
2022/05/18 08:53:46;;;;;;;7.55;3.60;;;24.80;98.50;;;;;;5032052;28;20037;-77
2022/05/18 08:56:20;;;;;;;5.72;3.10;;;24.80;95.60;;;;;;5031442;28;20018;-77
2022/05/18 08:58:52;;;;;;;7.53;3.20;;;24.80;96.30;;;;;;5025140;28;20497;-75
2022/05/18 09:01:40;;;;;;;5.00;3.20;;;24.90;95.60;;;;;;5030965;28;20530;-77
2022/05/18 09:04:52;;;;;;;7.82;3.53;;;24.90;95.40;;;;;;5032038;28;20029;-75
2022/05/18 09:07:22;;;;;;;9.13;3.30;;;25.10;93.70;;;;;;4995812;28;20604;-77
2022/05/18 09:12:39;;;;;;;5.43;3.30;;;25.00;91.60;;;;;;5029766;28;20195;-76
2022/05/18 09:15:07;;;;;;;7.53;3.15;;;25.10;92.60;;;;;;5031785;28;20032;-74
2022/05/18 09:17:59;;;;;;;5.22;2.88;;;25.00;92.20;;;;;;5030666;28;20466;-76
2022/05/18 09:20:54;;;;;;;4.60;2.92;;;25.20;90.60;;;;;;5031118;28;20470;-72
2022/05/18 09:23:40;;;;;;;5.63;3.05;;;25.20;91.00;;;;;;5031651;28;20033;-77
2022/05/18 09:26:47;;;;;;;5.65;3.10;;;25.40;90.10;;;;;;5031611;28;20036;-77
2022/05/18 09:29:15;;;;;;;4.53;3.05;;;25.40;90.40;;;;;;5029121;28;20478;-76
2022/05/18 09:32:00;;;;;;;6.60;3.35;;;25.40;89.50;;;;;;5029659;28;20040;-75
2022/05/18 09:34:29;;;;;;;6.07;2.85;;;25.40;89.00;;;;;;5030664;28;20624;-72
2022/05/18 09:37:13;;;;;;;5.43;3.22;;;25.50;84.90;;;;;;5030044;28;20056;-76
2022/05/18 09:39:43;;;;;;;8.20;3.75;;;25.50;85.30;;;;;;5030329;28;20219;-77
2022/05/18 09:42:14;;;;;;;;;;;25.50;83.10;;;;;;5031881;28;20022;-77
2022/05/18 09:44:58;;;;;;;5.18;2.50;;;25.70;90.00;;;;;;5030577;28;19956;-74
2022/05/18 09:47:27;;;;;;;5.72;3.13;;;26.00;79.00;;;;;;5031470;28;20044;-75
2022/05/18 09:49:56;;;;;;;5.03;2.90;;;26.30;80.40;;;;;;5030278;28;20172;-77
2022/05/18 09:52:28;;;;;;;6.55;2.90;;;26.40;83.30;;;;;;5030998;28;20025;-78
2022/05/18 09:54:58;;;;;;;5.30;2.78;;;26.40;86.00;;;;;;5031026;28;20091;-77
2022/05/18 09:57:31;;;;;;;4.18;2.72;;;26.60;81.20;;;;;;5030984;28;20033;-73
2022/05/18 10:00:09;;;;;;;8.13;2.67;;;26.30;82.40;;;;;;5030968;28;20078;-75
2022/05/18 10:08:33;;;;;;;5.28;2.85;;;26.70;79.90;;;;;;5030512;28;20759;-74
2022/05/18 10:11:05;;;;;;;4.65;2.47;;;26.50;71.90;;;;;;5030733;28;20041;-74
2022/05/18 10:13:53;;;;;;;7.07;3.15;;;26.40;72.50;;;;;;5030341;28;20037;-75
2022/05/18 10:16:20;;;;;;;5.13;2.40;;;26.40;76.70;;;;;;5030724;28;20032;-76
2022/05/18 10:18:56;;;;;;;4.57;2.75;;;26.50;70.50;;;;;;5029904;28;20033;-76
2022/05/18 10:21:50;;;;;;;8.93;2.97;;;26.70;74.00;;;;;;5029959;28;20041;-74
2022/05/18 10:24:41;;;;;;;4.35;2.67;;;26.60;69.60;;;;;;5030557;28;20025;-78
2022/05/18 10:27:21;;;;;;;4.15;2.75;;;26.70;68.30;;;;;;5029531;28;20497;-75
2022/05/18 10:29:51;;;;;;;4.53;2.85;;;26.90;70.40;;;;;;5029712;28;20029;-75
2022/05/18 10:32:23;;;;;;;5.35;2.90;;;26.90;70.20;;;;;;5030355;28;20083;-75
2022/05/18 10:34:51;;;;;;;9.25;3.22;;;26.80;70.00;;;;;;5029114;28;20634;-77
2022/05/18 10:37:31;;;;;;;5.10;2.70;;;27.00;70.20;;;;;;5030281;28;20037;-76
2022/05/18 10:40:09;;;;;;;5.50;2.80;;;26.50;67.50;;;;;;5029888;28;20061;-77
2022/05/18 10:42:48;;;;;;;6.03;2.80;;;26.60;67.80;;;;;;5028172;28;20091;-75
2022/05/18 10:45:25;;;;;;;5.82;2.50;;;26.90;69.00;;;;;;5030143;28;20426;-75
2022/05/18 10:47:57;;;;;;;5.10;2.65;;;26.80;66.70;;;;;;5029435;28;20053;-77
2022/05/18 10:50:28;;;;;;;4.85;2.67;;;27.20;66.00;;;;;;5030058;28;20100;-77
2022/05/18 10:53:16;;;;;;;17.20;2.80;;;27.40;64.90;;;;;;5029711;28;20026;-76
2022/05/18 10:56:13;;;;;;;6.88;2.80;;;27.40;64.90;;;;;;5029559;28;20080;-77
2022/05/18 10:58:52;;;;;;;7.30;2.78;;;26.90;68.40;;;;;;5007789;28;20088;-75
2022/05/18 11:01:34;;;;;;;10.30;3.20;;;27.20;65.20;;;;;;5029971;28;20482;-77
2022/05/18 11:04:24;;;;;;;5.15;2.70;;;27.40;70.10;;;;;;5011995;28;20504;-77
2022/05/18 11:06:49;;;;;;;5.75;2.78;;;27.50;64.70;;;;;;5028998;28;20029;-77
2022/05/18 11:09:22;;;;;;;4.05;2.63;;;27.60;66.60;;;;;;5029217;28;20037;-77
2022/05/18 11:12:00;;;;;;;7.40;2.80;;;27.70;66.40;;;;;;5028221;28;20036;-77
2022/05/18 11:14:40;;;;;;;5.95;2.72;;;27.80;62.20;;;;;;5029706;28;20044;-77
2022/05/18 11:17:37;;;;;;;6.38;2.88;;;27.60;63.60;;;;;;5029664;28;20033;-76
2022/05/18 11:20:31;;;;;;;5.22;2.55;;;27.50;72.10;;;;;;5029515;28;20037;-76
2022/05/18 11:23:05;;;;;;;7.55;2.92;;;27.50;64.50;;;;;;5029163;28;20033;-77
2022/05/18 11:25:43;;;;;;;4.82;3.00;;;27.50;63.50;;;;;;5029339;28;20033;-72
2022/05/18 11:29:00;;;;;;;4.47;2.70;;;27.50;63.50;;;;;;5028551;28;20072;-76
2022/05/18 11:31:53;;;;;;;3.67;2.30;;;27.50;61.60;;;;;;4941246;28;20040;-76
2022/05/18 11:34:34;;;;;;;3.80;2.42;;;27.70;57.40;;;;;;5029408;28;20478;-78
2022/05/18 11:37:34;;;;;;;9.45;3.00;;;27.90;60.40;;;;;;5029369;28;20037;-78
2022/05/18 11:40:09;;;;;;;6.78;3.00;;;28.00;63.00;;;;;;5028970;28;20068;-75
2022/05/18 11:42:43;;;;;;;9.70;3.03;;;28.10;63.70;;;;;;5027847;28;20034;-76
2022/05/18 11:45:15;;;;;;;4.00;2.92;;;27.80;63.80;;;;;;5029582;28;20152;-78
2022/05/18 11:48:10;;;;;;;10.43;3.58;;;27.80;67.90;;;;;;5028003;28;20025;-78
2022/05/18 11:51:22;;;;;;;5.30;2.78;;;28.00;66.80;;;;;;5028578;28;20475;-77
2022/05/18 11:54:01;;;;;;;7.05;2.95;;;27.90;64.30;;;;;;5005555;28;20045;-78
2022/05/18 11:56:45;;;;;;;5.38;3.10;;;27.60;65.10;;;;;;5032182;28;20232;-77
2022/05/18 11:59:45;;;;;;;7.22;3.35;;;27.60;61.80;;;;;;5033121;28;20029;-79
2022/05/18 12:02:14;;;;;;;5.65;3.03;;;27.80;63.70;;;;;;5006922;28;20049;-78
2022/05/18 12:05:04;;;;;;;4.85;2.80;;;27.90;61.40;;;;;;5031276;28;20382;-77
2022/05/18 12:07:45;;;;;;;7.25;3.20;;;27.90;62.70;;;;;;5033164;28;20030;-75
2022/05/18 12:10:32;;;;;;;6.72;3.28;;;27.80;59.80;;;;;;5033055;28;20033;-76
2022/05/18 12:13:34;;;;;;;6.70;3.00;;;28.10;64.90;;;;;;5032393;28;20048;-77
2022/05/18 12:16:15;;;;;;;4.75;2.97;;;28.20;62.20;;;;;;5032197;28;20025;-75
2022/05/18 12:18:47;;;;;;;3.75;2.75;;;27.90;63.80;;;;;;5032056;28;20095;-78
2022/05/18 12:21:21;;;;;;;8.07;2.80;;;27.90;61.60;;;;;;5032843;28;20060;-79
2022/05/18 12:23:50;;;;;;;5.70;3.30;;;27.90;60.20;;;;;;5032128;28;20776;-76
2022/05/18 12:26:20;;;;;;;3.78;2.72;;;27.90;61.00;;;;;;5032820;28;20083;-78
2022/05/18 12:28:46;;;;;;;6.37;3.10;;;28.10;61.30;;;;;;5031821;28;20041;-77
2022/05/18 12:31:12;;;;;;;12.65;3.10;;;28.30;59.90;;;;;;5032000;28;20025;-77
2022/05/18 12:34:12;;;;;;;4.07;2.72;;;28.50;59.10;;;;;;5032123;28;20033;-76
2022/05/18 12:36:46;;;;;;;3.90;3.00;;;28.90;58.00;;;;;;5004116;28;20037;-76
2022/05/18 12:39:18;;;;;;;5.88;3.30;;;28.80;60.30;;;;;;5032335;28;20089;-78
2022/05/18 12:41:48;;;;;;;4.00;2.90;;;28.70;59.50;;;;;;5030396;28;20040;-75
2022/05/18 12:44:22;;;;;;;5.93;2.90;;;28.70;61.10;;;;;;5031106;28;20037;-76
2022/05/18 12:47:01;;;;;;;5.57;2.92;;;28.60;57.30;;;;;;5031736;28;20029;-76
2022/05/18 12:49:41;;;;;;;4.85;2.88;;;28.70;58.30;;;;;;5032397;28;20038;-77
2022/05/18 12:52:06;;;;;;;6.07;2.83;;;28.80;55.70;;;;;;5032422;28;20664;-78
2022/05/18 12:54:47;;;;;;;4.80;2.80;;;28.40;56.10;;;;;;5032238;28;20025;-77
2022/05/18 12:57:38;;;;;;;4.05;2.63;;;28.00;55.10;;;;;;5031237;28;20116;-74
2022/05/18 13:00:25;;;;;;;7.88;2.88;;;28.20;57.50;;;;;;5032145;28;20037;-77
2022/05/18 13:03:08;;;;;;;6.20;2.85;;;28.50;56.60;;;;;;5030600;28;20038;-76
2022/05/18 13:05:41;;;;;;;6.45;2.83;;;28.50;57.60;;;;;;5030812;28;20544;-77
2022/05/18 13:08:16;;;;;;;4.55;2.70;;;28.40;55.70;;;;;;5030616;28;20405;-75
2022/05/18 13:11:07;;;;;;;3.70;2.70;;;28.10;55.20;;;;;;5031162;28;20080;-76
2022/05/18 13:14:02;;;;;;;8.52;3.00;;;28.20;55.60;;;;;;5031963;28;20033;-78
2022/05/18 13:16:39;;;;;;;4.78;2.72;;;28.10;55.10;;;;;;4977759;28;20122;-77
2022/05/18 13:19:18;;;;;;;6.18;2.80;;;27.80;56.10;;;;;;5013938;28;20033;-77
2022/05/18 13:21:44;;;;;;;6.68;3.13;;;28.00;60.50;;;;;;5030253;28;20034;-76
2022/05/18 13:24:48;;;;;;;7.13;2.70;;;28.20;57.60;;;;;;5031689;28;20044;-74